sensor_id;sensor_type;location;lat;lon;timestamp;pressure;altitude;pressure_sealevel;temperature;humidity
9899;BME280;4988;49.238;6.698;2022-11-20T00:01:44;98683.16;;;6.97;100.00
9899;BME280;4988;49.238;6.698;2022-11-20T00:04:10;98681.47;;;6.96;100.00
9899;BME280;4988;49.238;6.698;2022-11-20T00:06:36;98686.75;;;6.96;100.00
9899;BME280;4988;49.238;6.698;2022-11-20T00:09:02;98682.44;;;6.94;100.00
9899;BME280;4988;49.238;6.698;2022-11-20T00:11:30;98686.00;;;6.92;100.00
9899;BME280;4988;49.238;6.698;2022-11-20T00:13:58;98680.81;;;6.89;100.00
9899;BME280;4988;49.238;6.698;2022-11-20T00:16:26;98675.41;;;6.92;100.00
9899;BME280;4988;49.238;6.698;2022-11-20T00:18:52;98673.63;;;6.93;100.00
9899;BME280;4988;49.238;6.698;2022-11-20T00:21:20;98671.84;;;6.94;100.00
9899;BME280;4988;49.238;6.698;2022-11-20T00:23:46;98668.34;;;6.93;100.00
9899;BME280;4988;49.238;6.698;2022-11-20T00:26:14;98663.03;;;6.93;100.00
9899;BME280;4988;49.238;6.698;2022-11-20T00:28:40;98664.84;;;6.92;100.00
9899;BME280;4988;49.238;6.698;2022-11-20T00:31:11;98665.75;;;6.91;100.00
9899;BME280;4988;49.238;6.698;2022-11-20T00:33:37;98673.69;;;6.91;100.00
9899;BME280;4988;49.238;6.698;2022-11-20T00:36:04;98674.53;;;6.92;100.00
9899;BME280;4988;49.238;6.698;2022-11-20T00:38:31;98674.53;;;6.92;100.00
9899;BME280;4988;49.238;6.698;2022-11-20T00:40:58;98665.59;;;6.96;100.00
9899;BME280;4988;49.238;6.698;2022-11-20T00:43:24;98667.41;;;6.94;100.00
9899;BME280;4988;49.238;6.698;2022-11-20T00:45:50;98664.69;;;6.96;100.00
9899;BME280;4988;49.238;6.698;2022-11-20T00:48:15;98662.88;;;6.98;100.00
9899;BME280;4988;49.238;6.698;2022-11-20T00:50:41;98665.50;;;6.98;100.00
9899;BME280;4988;49.238;6.698;2022-11-20T00:53:07;98656.69;;;6.97;100.00
9899;BME280;4988;49.238;6.698;2022-11-20T00:55:32;98664.53;;;7.00;100.00
9899;BME280;4988;49.238;6.698;2022-11-20T00:57:57;98665.34;;;7.02;100.00
9899;BME280;4988;49.238;6.698;2022-11-20T01:00:22;98664.53;;;7.00;100.00
9899;BME280;4988;49.238;6.698;2022-11-20T01:02:48;98667.16;;;7.00;100.00
9899;BME280;4988;49.238;6.698;2022-11-20T01:05:13;98665.38;;;7.01;100.00
9899;BME280;4988;49.238;6.698;2022-11-20T01:07:38;98662.69;;;7.02;100.00
9899;BME280;4988;49.238;6.698;2022-11-20T01:10:04;98668.03;;;7.01;100.00
9899;BME280;4988;49.238;6.698;2022-11-20T01:12:29;98664.47;;;7.02;100.00
9899;BME280;4988;49.238;6.698;2022-11-20T01:14:55;98662.78;;;6.99;100.00
9899;BME280;4988;49.238;6.698;2022-11-20T01:17:20;98669.88;;;6.99;100.00
9899;BME280;4988;49.238;6.698;2022-11-20T01:19:48;98670.66;;;7.01;100.00
9899;BME280;4988;49.238;6.698;2022-11-20T01:22:14;98672.38;;;7.03;100.00
9899;BME280;4988;49.238;6.698;2022-11-20T01:24:39;98673.31;;;7.01;100.00
9899;BME280;4988;49.238;6.698;2022-11-20T01:27:05;98678.59;;;7.01;100.00
9899;BME280;4988;49.238;6.698;2022-11-20T01:29:30;98673.31;;;7.01;100.00
9899;BME280;4988;49.238;6.698;2022-11-20T01:31:55;98667.16;;;7.00;100.00
9899;BME280;4988;49.238;6.698;2022-11-20T01:34:21;98672.41;;;7.02;100.00
9899;BME280;4988;49.238;6.698;2022-11-20T01:36:47;98675.84;;;7.04;100.00
9899;BME280;4988;49.238;6.698;2022-11-20T01:39:21;98679.00;;;7.14;100.00
9899;BME280;4988;49.238;6.698;2022-11-20T01:41:48;98675.72;;;7.07;100.00
9899;BME280;4988;49.238;6.698;2022-11-20T01:47:43;98680.09;;;7.08;100.00
9899;BME280;4988;49.238;6.698;2022-11-20T01:52:46;98680.97;;;7.08;100.00
9899;BME280;4988;49.238;6.698;2022-11-20T01:55:18;98672.16;;;7.08;100.00
9899;BME280;4988;49.238;6.698;2022-11-20T01:57:45;98673.13;;;7.05;100.00
9899;BME280;4988;49.238;6.698;2022-11-20T02:00:15;98677.50;;;7.06;100.00
9899;BME280;4988;49.238;6.698;2022-11-20T02:02:44;98664.19;;;7.10;100.00
9899;BME280;4988;49.238;6.698;2022-11-20T02:05:21;98674.88;;;7.06;100.00
9899;BME280;4988;49.238;6.698;2022-11-20T02:07:48;98673.06;;;7.07;100.00
9899;BME280;4988;49.238;6.698;2022-11-20T02:10:14;98667.06;;;7.03;100.00
9899;BME280;4988;49.238;6.698;2022-11-20T02:12:39;98670.50;;;7.05;100.00
9899;BME280;4988;49.238;6.698;2022-11-20T02:15:23;98672.22;;;7.06;100.00
9899;BME280;4988;49.238;6.698;2022-11-20T02:17:48;98669.66;;;7.05;100.00
9899;BME280;4988;49.238;6.698;2022-11-20T02:20:13;98662.63;;;7.04;100.00
9899;BME280;4988;49.238;6.698;2022-11-20T02:22:48;98654.75;;;7.02;100.00
9899;BME280;4988;49.238;6.698;2022-11-20T02:25:16;98656.47;;;7.03;100.00
9899;BME280;4988;49.238;6.698;2022-11-20T02:27:42;98656.47;;;7.03;100.00
9899;BME280;4988;49.238;6.698;2022-11-20T02:30:08;98650.31;;;7.03;100.00
9899;BME280;4988;49.238;6.698;2022-11-20T02:32:36;98660.03;;;7.02;100.00
9899;BME280;4988;49.238;6.698;2022-11-20T02:37:55;98654.75;;;7.02;100.00
9899;BME280;4988;49.238;6.698;2022-11-20T02:40:21;98643.28;;;7.02;100.00
9899;BME280;4988;49.238;6.698;2022-11-20T02:42:47;98652.03;;;7.04;100.00
9899;BME280;4988;49.238;6.698;2022-11-20T02:45:12;98649.50;;;7.01;100.00
9899;BME280;4988;49.238;6.698;2022-11-20T02:47:37;98652.09;;;7.02;100.00
9899;BME280;4988;49.238;6.698;2022-11-20T02:50:04;98650.19;;;7.06;100.00
9899;BME280;4988;49.238;6.698;2022-11-20T02:52:29;98643.97;;;7.07;100.00
9899;BME280;4988;49.238;6.698;2022-11-20T02:54:55;98647.66;;;7.03;100.00
9899;BME280;4988;49.238;6.698;2022-11-20T02:57:20;98640.59;;;7.03;100.00
9899;BME280;4988;49.238;6.698;2022-11-20T02:59:45;98643.25;;;7.03;100.00
9899;BME280;4988;49.238;6.698;2022-11-20T03:02:11;98637.16;;;7.01;100.00
9899;BME280;4988;49.238;6.698;2022-11-20T03:04:36;98630.97;;;7.01;100.00
9899;BME280;4988;49.238;6.698;2022-11-20T03:07:02;98635.25;;;7.05;100.00
9899;BME280;4988;49.238;6.698;2022-11-20T03:09:27;98637.06;;;7.03;100.00
9899;BME280;4988;49.238;6.698;2022-11-20T03:11:54;98623.84;;;7.03;100.00
9899;BME280;4988;49.238;6.698;2022-11-20T03:14:19;98633.59;;;7.02;100.00
9899;BME280;4988;49.238;6.698;2022-11-20T03:16:44;98629.22;;;7.01;100.00
9899;BME280;4988;49.238;6.698;2022-11-20T03:19:11;98626.56;;;7.01;100.00
9899;BME280;4988;49.238;6.698;2022-11-20T03:21:36;98626.66;;;6.98;100.00
9899;BME280;4988;49.238;6.698;2022-11-20T03:24:02;98624.91;;;6.99;100.00
9899;BME280;4988;49.238;6.698;2022-11-20T03:26:28;98626.66;;;6.98;100.00
9899;BME280;4988;49.238;6.698;2022-11-20T03:28:56;98630.13;;;7.00;100.00
9899;BME280;4988;49.238;6.698;2022-11-20T03:31:29;98618.72;;;6.98;100.00
9899;BME280;4988;49.238;6.698;2022-11-20T03:33:56;98624.75;;;7.02;100.00
9899;BME280;4988;49.238;6.698;2022-11-20T03:36:21;98620.53;;;6.98;100.00
9899;BME280;4988;49.238;6.698;2022-11-20T03:38:47;98619.72;;;6.96;100.00
9899;BME280;4988;49.238;6.698;2022-11-20T03:41:20;98618.88;;;6.95;100.00
9899;BME280;4988;49.238;6.698;2022-11-20T03:46:18;98622.44;;;6.94;100.00
9899;BME280;4988;49.238;6.698;2022-11-20T03:48:43;98619.66;;;6.97;100.00
9899;BME280;4988;49.238;6.698;2022-11-20T03:51:17;98623.25;;;6.96;100.00
9899;BME280;4988;49.238;6.698;2022-11-20T03:53:44;98618.00;;;6.95;100.00
9899;BME280;4988;49.238;6.698;2022-11-20T03:56:12;98621.38;;;6.98;100.00
9899;BME280;4988;49.238;6.698;2022-11-20T03:58:38;98626.72;;;6.97;100.00
9899;BME280;4988;49.238;6.698;2022-11-20T04:01:12;98620.59;;;6.96;100.00
9899;BME280;4988;49.238;6.698;2022-11-20T04:03:39;98627.66;;;6.96;100.00
9899;BME280;4988;49.238;6.698;2022-11-20T04:06:48;98630.38;;;6.94;100.00
9899;BME280;4988;49.238;6.698;2022-11-20T04:09:06;98620.78;;;6.91;100.00
9899;BME280;4988;49.238;6.698;2022-11-20T04:11:34;98621.69;;;6.90;100.00
9899;BME280;4988;49.238;6.698;2022-11-20T04:14:02;98620.84;;;6.90;100.00
9899;BME280;4988;49.238;6.698;2022-11-20T04:16:32;98623.50;;;6.90;100.00
9899;BME280;4988;49.238;6.698;2022-11-20T04:18:59;98628.72;;;6.91;100.00
9899;BME280;4988;49.238;6.698;2022-11-20T04:21:25;98626.06;;;6.91;100.00
9899;BME280;4988;49.238;6.698;2022-11-20T04:23:52;98634.84;;;6.92;100.00
9899;BME280;4988;49.238;6.698;2022-11-20T04:26:22;98625.19;;;6.91;100.00
9899;BME280;4988;49.238;6.698;2022-11-20T04:28:48;98632.19;;;6.92;100.00
9899;BME280;4988;49.238;6.698;2022-11-20T04:31:16;98628.63;;;6.93;100.00
9899;BME280;4988;49.238;6.698;2022-11-20T04:33:42;98634.69;;;6.97;100.00
9899;BME280;4988;49.238;6.698;2022-11-20T04:36:13;98631.84;;;7.01;100.00
9899;BME280;4988;49.238;6.698;2022-11-20T04:38:39;98632.84;;;6.99;100.00
9899;BME280;4988;49.238;6.698;2022-11-20T04:41:06;98624.72;;;7.03;100.00
9899;BME280;4988;49.238;6.698;2022-11-20T04:43:33;98627.41;;;7.02;100.00
9899;BME280;4988;49.238;6.698;2022-11-20T04:45:59;98622.84;;;7.05;100.00
9899;BME280;4988;49.238;6.698;2022-11-20T04:48:26;98624.72;;;7.03;100.00
9899;BME280;4988;49.238;6.698;2022-11-20T04:50:51;98624.84;;;7.00;100.00
9899;BME280;4988;49.238;6.698;2022-11-20T04:53:17;98630.03;;;7.03;100.00
9899;BME280;4988;49.238;6.698;2022-11-20T04:55:43;98626.50;;;7.03;100.00
9899;BME280;4988;49.238;6.698;2022-11-20T04:58:09;98619.28;;;7.06;100.00
9899;BME280;4988;49.238;6.698;2022-11-20T05:00:34;98628.09;;;7.07;100.00
9899;BME280;4988;49.238;6.698;2022-11-20T05:02:59;98625.56;;;7.04;100.00
9899;BME280;4988;49.238;6.698;2022-11-20T05:05:25;98627.22;;;7.06;100.00
9899;BME280;4988;49.238;6.698;2022-11-20T05:07:50;98626.31;;;7.07;100.00
9899;BME280;4988;49.238;6.698;2022-11-20T05:10:15;98628.97;;;7.07;100.00
9899;BME280;4988;49.238;6.698;2022-11-20T05:12:41;98621.94;;;7.06;100.00
9899;BME280;4988;49.238;6.698;2022-11-20T05:15:06;98620.09;;;7.08;100.00
9899;BME280;4988;49.238;6.698;2022-11-20T05:17:32;98622.69;;;7.10;100.00
9899;BME280;4988;49.238;6.698;2022-11-20T05:19:57;98624.22;;;7.16;100.00
9899;BME280;4988;49.238;6.698;2022-11-20T05:22:23;98627.06;;;7.11;100.00
9899;BME280;4988;49.238;6.698;2022-11-20T05:24:48;98625.31;;;7.10;100.00
9899;BME280;4988;49.238;6.698;2022-11-20T05:27:13;98623.59;;;7.09;100.00
9899;BME280;4988;49.238;6.698;2022-11-20T05:29:39;98628.81;;;7.11;100.00
9899;BME280;4988;49.238;6.698;2022-11-20T05:32:04;98631.47;;;7.11;100.00
9899;BME280;4988;49.238;6.698;2022-11-20T05:34:32;98626.19;;;7.11;100.00
9899;BME280;4988;49.238;6.698;2022-11-20T05:36:57;98629.56;;;7.14;100.00
9899;BME280;4988;49.238;6.698;2022-11-20T05:39:23;98626.06;;;7.14;100.00
9899;BME280;4988;49.238;6.698;2022-11-20T05:41:48;98635.59;;;7.18;100.00
9899;BME280;4988;49.238;6.698;2022-11-20T05:44:33;98622.34;;;7.18;100.00
9899;BME280;4988;49.238;6.698;2022-11-20T05:46:59;98625.81;;;7.20;100.00
9899;BME280;4988;49.238;6.698;2022-11-20T05:49:24;98627.66;;;7.18;100.00
9899;BME280;4988;49.238;6.698;2022-11-20T05:51:49;98633.81;;;7.18;100.00
9899;BME280;4988;49.238;6.698;2022-11-20T05:54:14;98634.56;;;7.22;100.00
9899;BME280;4988;49.238;6.698;2022-11-20T05:56:40;98627.53;;;7.21;100.00
9899;BME280;4988;49.238;6.698;2022-11-20T05:59:05;98629.28;;;7.22;100.00
9899;BME280;4988;49.238;6.698;2022-11-20T06:01:30;98630.84;;;7.26;100.00
9899;BME280;4988;49.238;6.698;2022-11-20T06:03:56;98634.56;;;7.22;100.00
9899;BME280;4988;49.238;6.698;2022-11-20T06:06:21;98635.56;;;7.19;100.00
9899;BME280;4988;49.238;6.698;2022-11-20T06:08:47;98639.97;;;7.19;100.00
9899;BME280;4988;49.238;6.698;2022-11-20T06:11:14;98644.28;;;7.21;100.00
9899;BME280;4988;49.238;6.698;2022-11-20T06:13:41;98649.63;;;7.20;100.00
9899;BME280;4988;49.238;6.698;2022-11-20T06:16:06;98648.06;;;7.16;100.00
9899;BME280;4988;49.238;6.698;2022-11-20T06:18:31;98643.59;;;7.16;100.00
9899;BME280;4988;49.238;6.698;2022-11-20T06:21:09;98649.00;;;7.13;100.00
9899;BME280;4988;49.238;6.698;2022-11-20T06:23:35;98650.06;;;7.09;100.00
9899;BME280;4988;49.238;6.698;2022-11-20T06:26:07;98651.19;;;7.03;100.00
9899;BME280;4988;49.238;6.698;2022-11-20T06:28:32;98646.81;;;7.02;100.00
9899;BME280;4988;49.238;6.698;2022-11-20T06:30:58;98646.09;;;6.97;100.00
9899;BME280;4988;49.238;6.698;2022-11-20T06:33:24;98649.81;;;6.93;100.00
9899;BME280;4988;49.238;6.698;2022-11-20T06:35:49;98651.72;;;6.89;100.00
9899;BME280;4988;49.238;6.698;2022-11-20T06:38:15;98654.44;;;6.88;100.00
9899;BME280;4988;49.238;6.698;2022-11-20T06:40:41;98650.06;;;6.87;100.00
9899;BME280;4988;49.238;6.698;2022-11-20T06:43:06;98657.06;;;6.88;100.00
9899;BME280;4988;49.238;6.698;2022-11-20T06:45:32;98654.50;;;6.86;100.00
9899;BME280;4988;49.238;6.698;2022-11-20T06:47:57;98659.78;;;6.86;100.00
9899;BME280;4988;49.238;6.698;2022-11-20T06:50:23;98665.09;;;6.85;100.00
9899;BME280;4988;49.238;6.698;2022-11-20T06:52:49;98666.06;;;6.84;100.00
9899;BME280;4988;49.238;6.698;2022-11-20T06:55:14;98658.97;;;6.84;100.00
9899;BME280;4988;49.238;6.698;2022-11-20T06:57:39;98661.63;;;6.84;100.00
9899;BME280;4988;49.238;6.698;2022-11-20T07:00:05;98673.03;;;6.85;100.00
9899;BME280;4988;49.238;6.698;2022-11-20T07:02:31;98676.50;;;6.87;100.00
9899;BME280;4988;49.238;6.698;2022-11-20T07:04:56;98673.19;;;6.82;100.00
9899;BME280;4988;49.238;6.698;2022-11-20T07:07:22;98672.19;;;6.84;100.00
9899;BME280;4988;49.238;6.698;2022-11-20T07:09:47;98684.50;;;6.85;100.00
9899;BME280;4988;49.238;6.698;2022-11-20T07:12:12;98687.09;;;6.87;100.00
9899;BME280;4988;49.238;6.698;2022-11-20T07:14:38;98694.22;;;6.85;100.00
9899;BME280;4988;49.238;6.698;2022-11-20T07:17:03;98693.44;;;6.83;100.00
9899;BME280;4988;49.238;6.698;2022-11-20T07:19:29;98694.34;;;6.82;100.00
9899;BME280;4988;49.238;6.698;2022-11-20T07:21:54;98692.63;;;6.81;100.00
9899;BME280;4988;49.238;6.698;2022-11-20T07:24:20;98698.81;;;6.80;100.00
9899;BME280;4988;49.238;6.698;2022-11-20T07:26:46;98698.94;;;6.76;100.00
9899;BME280;4988;49.238;6.698;2022-11-20T07:29:14;98704.94;;;6.82;100.00
9899;BME280;4988;49.238;6.698;2022-11-20T07:31:42;98705.03;;;6.79;100.00
9899;BME280;4988;49.238;6.698;2022-11-20T07:34:08;98706.81;;;6.78;100.00
9899;BME280;4988;49.238;6.698;2022-11-20T07:36:33;98709.53;;;6.76;100.00
9899;BME280;4988;49.238;6.698;2022-11-20T07:38:59;98709.47;;;6.78;100.00
9899;BME280;4988;49.238;6.698;2022-11-20T07:41:25;98713.84;;;6.79;100.00
9899;BME280;4988;49.238;6.698;2022-11-20T07:43:51;98719.13;;;6.79;100.00
9899;BME280;4988;49.238;6.698;2022-11-20T07:46:16;98719.19;;;6.78;100.00
9899;BME280;4988;49.238;6.698;2022-11-20T07:48:42;98726.19;;;6.79;100.00
9899;BME280;4988;49.238;6.698;2022-11-20T07:51:08;98724.28;;;6.82;100.00
9899;BME280;4988;49.238;6.698;2022-11-20T07:53:33;98724.34;;;6.81;100.00
9899;BME280;4988;49.238;6.698;2022-11-20T07:56:00;98729.66;;;6.81;100.00
9899;BME280;4988;49.238;6.698;2022-11-20T07:58:26;98725.28;;;6.80;100.00
9899;BME280;4988;49.238;6.698;2022-11-20T08:00:53;98720.91;;;6.79;100.00
9899;BME280;4988;49.238;6.698;2022-11-20T08:03:19;98723.50;;;6.80;100.00
9899;BME280;4988;49.238;6.698;2022-11-20T08:05:44;98727.00;;;6.81;100.00
9899;BME280;4988;49.238;6.698;2022-11-20T08:08:10;98734.88;;;6.82;100.00
9899;BME280;4988;49.238;6.698;2022-11-20T08:10:37;98743.56;;;6.86;100.00
9899;BME280;4988;49.238;6.698;2022-11-20T08:13:02;98735.69;;;6.84;100.00
9899;BME280;4988;49.238;6.698;2022-11-20T08:15:50;98740.00;;;6.87;100.00
9899;BME280;4988;49.238;6.698;2022-11-20T08:18:16;98739.94;;;6.88;100.00
9899;BME280;4988;49.238;6.698;2022-11-20T08:20:43;98740.69;;;6.92;100.00
9899;BME280;4988;49.238;6.698;2022-11-20T08:23:08;98741.50;;;6.94;100.00
9899;BME280;4988;49.238;6.698;2022-11-20T08:25:36;98736.31;;;6.91;100.00
9899;BME280;4988;49.238;6.698;2022-11-20T08:28:05;98736.88;;;6.99;100.00
9899;BME280;4988;49.238;6.698;2022-11-20T08:30:31;98744.50;;;7.08;100.00
9899;BME280;4988;49.238;6.698;2022-11-20T08:33:05;98739.44;;;7.02;100.00
9899;BME280;4988;49.238;6.698;2022-11-20T08:35:38;98737.56;;;7.04;100.00
9899;BME280;4988;49.238;6.698;2022-11-20T08:38:06;98744.50;;;7.08;100.00
9899;BME280;4988;49.238;6.698;2022-11-20T08:40:32;98746.94;;;7.13;100.00
9899;BME280;4988;49.238;6.698;2022-11-20T08:42:58;98738.09;;;7.14;100.00
9899;BME280;4988;49.238;6.698;2022-11-20T08:45:23;98748.63;;;7.16;100.00
9899;BME280;4988;49.238;6.698;2022-11-20T08:47:49;98743.34;;;7.16;100.00
9899;BME280;4988;49.238;6.698;2022-11-20T08:50:15;98744.94;;;7.20;100.00
9899;BME280;4988;49.238;6.698;2022-11-20T08:52:41;98748.31;;;7.23;100.00
9899;BME280;4988;49.238;6.698;2022-11-20T08:55:07;98739.47;;;7.24;100.00
9899;BME280;4988;49.238;6.698;2022-11-20T08:57:37;98742.03;;;7.26;100.00
9899;BME280;4988;49.238;6.698;2022-11-20T09:00:04;98749.06;;;7.27;100.00
9899;BME280;4988;49.238;6.698;2022-11-20T09:02:29;98747.34;;;7.26;100.00
9899;BME280;4988;49.238;6.698;2022-11-20T09:04:55;98741.19;;;7.26;100.00
9899;BME280;4988;49.238;6.698;2022-11-20T09:07:20;98750.91;;;7.25;100.00
9899;BME280;4988;49.238;6.698;2022-11-20T09:09:45;98750.00;;;7.26;100.00
9899;BME280;4988;49.238;6.698;2022-11-20T09:12:11;98748.31;;;7.23;100.00
9899;BME280;4988;49.238;6.698;2022-11-20T09:14:36;98752.06;;;7.18;100.00
9899;BME280;4988;49.238;6.698;2022-11-20T09:17:02;98751.28;;;7.16;100.00
9899;BME280;4988;49.238;6.698;2022-11-20T09:19:27;98761.72;;;7.19;100.00
9899;BME280;4988;49.238;6.698;2022-11-20T09:21:52;98763.53;;;7.18;100.00
9899;BME280;4988;49.238;6.698;2022-11-20T09:24:18;98765.28;;;7.18;100.00
9899;BME280;4988;49.238;6.698;2022-11-20T09:26:45;98768.94;;;7.15;100.00
9899;BME280;4988;49.238;6.698;2022-11-20T09:29:10;98768.00;;;7.16;100.00
9899;BME280;4988;49.238;6.698;2022-11-20T09:31:36;98769.81;;;7.16;100.00
9899;BME280;4988;49.238;6.698;2022-11-20T09:34:01;98766.41;;;7.12;100.00
9899;BME280;4988;49.238;6.698;2022-11-20T09:36:27;98770.72;;;7.15;100.00
9899;BME280;4988;49.238;6.698;2022-11-20T09:38:52;98769.69;;;7.19;100.00
9899;BME280;4988;49.238;6.698;2022-11-20T09:47:45;98759.44;;;7.33;100.00
9899;BME280;4988;49.238;6.698;2022-11-20T09:50:37;98761.25;;;7.31;100.00
9899;BME280;4988;49.238;6.698;2022-11-20T09:53:16;98760.28;;;7.34;100.00
9899;BME280;4988;49.238;6.698;2022-11-20T09:55:46;98758.38;;;7.37;100.00
9899;BME280;4988;49.238;6.698;2022-11-20T09:58:35;98754.81;;;7.38;100.00
9899;BME280;4988;49.238;6.698;2022-11-20T10:01:16;98760.16;;;7.37;100.00
9899;BME280;4988;49.238;6.698;2022-11-20T10:04:13;98754.88;;;7.37;100.00
9899;BME280;4988;49.238;6.698;2022-11-20T10:06:59;98756.97;;;7.51;100.00
9899;BME280;4988;49.238;6.698;2022-11-20T10:09:37;98757.53;;;7.59;100.00
9899;BME280;4988;49.238;6.698;2022-11-20T10:12:24;98745.63;;;7.69;100.00
9899;BME280;4988;49.238;6.698;2022-11-20T10:20:43;98744.34;;;8.00;100.00
9899;BME280;4988;49.238;6.698;2022-11-20T10:23:24;98740.13;;;7.96;99.52
9899;BME280;4988;49.238;6.698;2022-11-20T10:31:39;98732.00;;;7.99;100.00
9899;BME280;4988;49.238;6.698;2022-11-20T10:34:26;98721.63;;;7.95;99.15
9899;BME280;4988;49.238;6.698;2022-11-20T10:37:00;98724.88;;;8.01;99.50
9899;BME280;4988;49.238;6.698;2022-11-20T10:39:33;98728.44;;;8.00;97.44
9899;BME280;4988;49.238;6.698;2022-11-20T10:42:00;98721.31;;;8.02;96.54
9899;BME280;4988;49.238;6.698;2022-11-20T10:44:27;98718.38;;;8.09;97.16
9899;BME280;4988;49.238;6.698;2022-11-20T10:47:17;98715.00;;;8.05;96.28
9899;BME280;4988;49.238;6.698;2022-11-20T10:49:46;98719.25;;;8.09;95.97
9899;BME280;4988;49.238;6.698;2022-11-20T10:55:28;98714.63;;;8.14;93.82
9899;BME280;4988;49.238;6.698;2022-11-20T10:58:19;98712.00;;;8.13;95.18
9899;BME280;4988;49.238;6.698;2022-11-20T11:00:47;98710.09;;;8.16;95.13
9899;BME280;4988;49.238;6.698;2022-11-20T11:03:22;98718.72;;;8.21;93.73
9899;BME280;4988;49.238;6.698;2022-11-20T11:05:59;98716.31;;;8.15;90.87
9899;BME280;4988;49.238;6.698;2022-11-20T11:08:34;98710.44;;;8.09;89.85
9899;BME280;4988;49.238;6.698;2022-11-20T11:11:05;98703.09;;;7.95;88.68
9899;BME280;4988;49.238;6.698;2022-11-20T11:13:34;98697.78;;;7.95;88.96
9899;BME280;4988;49.238;6.698;2022-11-20T11:15:59;98707.50;;;7.94;89.80
9899;BME280;4988;49.238;6.698;2022-11-20T11:18:32;98690.31;;;8.04;89.73
9899;BME280;4988;49.238;6.698;2022-11-20T11:21:04;98686.69;;;8.05;87.63
9899;BME280;4988;49.238;6.698;2022-11-20T11:23:36;98692.94;;;8.04;88.41
9899;BME280;4988;49.238;6.698;2022-11-20T11:26:06;98679.16;;;8.17;89.34
9899;BME280;4988;49.238;6.698;2022-11-20T11:28:32;98672.66;;;8.24;88.44
9899;BME280;4988;49.238;6.698;2022-11-20T11:30:58;98669.78;;;8.29;88.39
9899;BME280;4988;49.238;6.698;2022-11-20T11:33:28;98660.06;;;8.29;88.14
9899;BME280;4988;49.238;6.698;2022-11-20T11:35:55;98657.41;;;8.29;88.17
9899;BME280;4988;49.238;6.698;2022-11-20T11:38:39;98653.03;;;8.28;89.54
9899;BME280;4988;49.238;6.698;2022-11-20T11:41:07;98658.34;;;8.28;87.83
9899;BME280;4988;49.238;6.698;2022-11-20T11:43:36;98666.47;;;8.24;87.70
9899;BME280;4988;49.238;6.698;2022-11-20T11:48:56;98668.94;;;8.28;88.26
9899;BME280;4988;49.238;6.698;2022-11-20T11:51:22;98657.22;;;8.34;89.23
9899;BME280;4988;49.238;6.698;2022-11-20T11:53:47;98657.41;;;8.29;89.18
9899;BME280;4988;49.238;6.698;2022-11-20T11:56:13;98647.84;;;8.25;89.61
9899;BME280;4988;49.238;6.698;2022-11-20T11:58:47;98651.19;;;8.30;89.72
9899;BME280;4988;49.238;6.698;2022-11-20T12:04:17;98627.97;;;8.35;89.88
9899;BME280;4988;49.238;6.698;2022-11-20T12:06:50;98638.69;;;8.32;89.54
9899;BME280;4988;49.238;6.698;2022-11-20T12:09:18;98634.00;;;8.39;90.29
9899;BME280;4988;49.238;6.698;2022-11-20T12:11:59;98629.53;;;8.40;89.68
9899;BME280;4988;49.238;6.698;2022-11-20T12:14:34;98628.81;;;8.36;89.87
9899;BME280;4988;49.238;6.698;2022-11-20T12:17:01;98626.06;;;8.37;89.66
9899;BME280;4988;49.238;6.698;2022-11-20T12:19:29;98629.53;;;8.40;90.66
9899;BME280;4988;49.238;6.698;2022-11-20T12:24:51;98624.88;;;8.45;90.59
9899;BME280;4988;49.238;6.698;2022-11-20T12:30:08;98621.97;;;8.51;88.56
9899;BME280;4988;49.238;6.698;2022-11-20T12:35:11;98618.38;;;8.52;87.29
9899;BME280;4988;49.238;6.698;2022-11-20T12:37:47;98616.63;;;8.52;87.38
9899;BME280;4988;49.238;6.698;2022-11-20T12:46:01;98611.31;;;8.52;84.72
9899;BME280;4988;49.238;6.698;2022-11-20T12:48:36;98606.22;;;8.48;85.68
9899;BME280;4988;49.238;6.698;2022-11-20T12:53:40;98600.91;;;8.48;85.76
9899;BME280;4988;49.238;6.698;2022-11-20T13:01:48;98579.59;;;8.49;86.22
9899;BME280;4988;49.238;6.698;2022-11-20T13:07:12;98579.47;;;8.52;85.42
9899;BME280;4988;49.238;6.698;2022-11-20T13:09:43;98568.78;;;8.54;84.58
9899;BME280;4988;49.238;6.698;2022-11-20T13:12:33;98548.84;;;8.64;85.03
9899;BME280;4988;49.238;6.698;2022-11-20T13:15:21;98559.59;;;8.61;84.93
9899;BME280;4988;49.238;6.698;2022-11-20T13:17:55;98542.81;;;8.61;82.39
9899;BME280;4988;49.238;6.698;2022-11-20T13:20:22;98537.88;;;8.53;82.67
9899;BME280;4988;49.238;6.698;2022-11-20T13:22:52;98539.06;;;8.46;81.74
9899;BME280;4988;49.238;6.698;2022-11-20T13:25:24;98534.13;;;8.38;80.48
9899;BME280;4988;49.238;6.698;2022-11-20T13:27:49;98532.31;;;8.38;80.88
9899;BME280;4988;49.238;6.698;2022-11-20T13:30:17;98526.00;;;8.41;81.96
9899;BME280;4988;49.238;6.698;2022-11-20T13:32:58;98518.22;;;8.38;81.39
9899;BME280;4988;49.238;6.698;2022-11-20T13:35:40;98513.84;;;8.37;82.44
9899;BME280;4988;49.238;6.698;2022-11-20T13:38:07;98509.38;;;8.37;83.37
9899;BME280;4988;49.238;6.698;2022-11-20T13:40:36;98514.56;;;8.41;83.81
9899;BME280;4988;49.238;6.698;2022-11-20T13:43:04;98505.81;;;8.38;84.67
9899;BME280;4988;49.238;6.698;2022-11-20T13:45:33;98505.03;;;8.36;84.55
9899;BME280;4988;49.238;6.698;2022-11-20T13:48:20;98506.72;;;8.37;84.41
9899;BME280;4988;49.238;6.698;2022-11-20T13:50:57;98502.53;;;8.33;84.45
9899;BME280;4988;49.238;6.698;2022-11-20T14:02:16;98493.00;;;8.29;85.79
9899;BME280;4988;49.238;6.698;2022-11-20T14:04:47;98500.06;;;8.29;85.53
9899;BME280;4988;49.238;6.698;2022-11-20T14:07:13;98489.63;;;8.26;86.38
9899;BME280;4988;49.238;6.698;2022-11-20T14:09:55;98487.69;;;8.29;86.15
9899;BME280;4988;49.238;6.698;2022-11-20T14:12:32;98488.63;;;8.28;86.41
9899;BME280;4988;49.238;6.698;2022-11-20T14:14:58;98487.91;;;8.25;85.42
9899;BME280;4988;49.238;6.698;2022-11-20T14:17:32;98488.91;;;8.22;84.80
9899;BME280;4988;49.238;6.698;2022-11-20T14:20:00;98480.44;;;8.14;83.56
9899;BME280;4988;49.238;6.698;2022-11-20T14:22:27;98486.63;;;8.14;85.40
9899;BME280;4988;49.238;6.698;2022-11-20T14:25:18;98475.38;;;8.09;83.63
9899;BME280;4988;49.238;6.698;2022-11-20T14:27:53;98478.69;;;8.14;83.69
9899;BME280;4988;49.238;6.698;2022-11-20T14:30:22;98480.31;;;8.17;83.87
9899;BME280;4988;49.238;6.698;2022-11-20T14:32:49;98483.03;;;8.15;83.88
9899;BME280;4988;49.238;6.698;2022-11-20T14:35:23;98473.28;;;8.16;83.32
9899;BME280;4988;49.238;6.698;2022-11-20T14:37:49;98467.06;;;8.17;83.93
9899;BME280;4988;49.238;6.698;2022-11-20T14:40:41;98468.28;;;8.10;83.92
9899;BME280;4988;49.238;6.698;2022-11-20T14:45:45;98466.56;;;8.09;84.57
9899;BME280;4988;49.238;6.698;2022-11-20T14:48:16;98466.56;;;8.09;85.36